Time;durP1;ratioP1;P1;durP2;ratioP2;P2;SDS_P1;SDS_P2;PMS_P1;PMS_P2;Temp;Humidity;BMP_temperature;BMP_pressure;BME280_temperature;BME280_humidity;BME280_pressure;Samples;Min_cycle;Max_cycle;Signal;HPM_P1;HPM_P2
2023/02/28 00:02:20;;;;;;;0.27;0.27;;;;;;;;;;5049944;28;20265;-71
2023/02/28 00:04:52;;;;;;;0.20;0.20;;;;;;;;;;5044358;28;20235;-71
2023/02/28 00:07:20;;;;;;;0.20;0.20;;;;;;;;;;5049831;28;20246;-71
2023/02/28 00:09:46;;;;;;;0.20;0.20;;;;;;;;;;5044557;28;20250;-71
2023/02/28 00:12:13;;;;;;;0.20;0.20;;;;;;;;;;5049808;28;20635;-71
2023/02/28 00:14:39;;;;;;;0.20;0.20;;;;;;;;;;5044433;28;20203;-71
2023/02/28 00:17:05;;;;;;;0.20;0.20;;;;;;;;;;5049391;28;20240;-71
2023/02/28 00:19:32;;;;;;;0.20;0.20;;;;;;;;;;5044442;28;20234;-71
2023/02/28 00:21:58;;;;;;;0.20;0.20;;;;;;;;;;5048558;28;20243;-71
2023/02/28 00:24:26;;;;;;;0.20;0.20;;;;;;;;;;5045177;28;20239;-71
2023/02/28 00:26:52;;;;;;;0.20;0.20;;;;;;;;;;5047602;28;20434;-71
2023/02/28 00:29:19;;;;;;;0.40;0.40;;;;;;;;;;5046021;28;20233;-71
2023/02/28 00:31:45;;;;;;;0.20;0.20;;;;;;;;;;5046463;28;20268;-71
2023/02/28 00:34:11;;;;;;;0.20;0.20;;;;;;;;;;5046792;28;20211;-71
2023/02/28 00:36:38;;;;;;;0.20;0.20;;;;;;;;;;5045425;28;20263;-71
2023/02/28 00:39:04;;;;;;;0.23;0.23;;;;;;;;;;5047525;28;20226;-71
2023/02/28 00:41:32;;;;;;;0.20;0.20;;;;;;;;;;5044638;28;20494;-71
2023/02/28 00:43:58;;;;;;;0.20;0.20;;;;;;;;;;5048271;28;20266;-71
2023/02/28 00:46:24;;;;;;;0.20;0.20;;;;;;;;;;5043598;28;20248;-71
2023/02/28 00:48:51;;;;;;;0.20;0.20;;;;;;;;;;5049141;28;20245;-71
2023/02/28 00:51:17;;;;;;;0.20;0.20;;;;;;;;;;5042527;28;20268;-71
2023/02/28 00:53:44;;;;;;;0.30;0.30;;;;;;;;;;5050037;28;20206;-71
2023/02/28 00:56:10;;;;;;;0.20;0.20;;;;;;;;;;5041567;28;20242;-71
2023/02/28 00:58:38;;;;;;;0.20;0.20;;;;;;;;;;5051206;28;20532;-71
2023/02/28 01:01:04;;;;;;;0.30;0.30;;;;;;;;;;5040840;28;20309;-71
2023/02/28 01:03:31;;;;;;;0.20;0.20;;;;;;;;;;5051868;28;20269;-71
2023/02/28 01:05:57;;;;;;;0.20;0.20;;;;;;;;;;5040086;28;20258;-71
2023/02/28 01:08:23;;;;;;;0.20;0.20;;;;;;;;;;5052773;28;20395;-71
2023/02/28 01:10:50;;;;;;;0.20;0.20;;;;;;;;;;5039065;28;20246;-71
2023/02/28 01:13:16;;;;;;;0.20;0.20;;;;;;;;;;5053616;28;20209;-71
2023/02/28 01:15:46;;;;;;;0.20;0.20;;;;;;;;;;5038213;28;20273;-71
2023/02/28 01:18:12;;;;;;;0.20;0.20;;;;;;;;;;5053838;28;20237;-71
2023/02/28 01:20:39;;;;;;;0.23;0.23;;;;;;;;;;5037291;28;20589;-71
2023/02/28 01:23:05;;;;;;;0.20;0.20;;;;;;;;;;5054931;28;20259;-71
2023/02/28 01:25:31;;;;;;;0.20;0.20;;;;;;;;;;5036659;28;20242;-71
2023/02/28 01:27:58;;;;;;;0.20;0.20;;;;;;;;;;5055905;28;20261;-71
2023/02/28 01:30:24;;;;;;;0.20;0.20;;;;;;;;;;5035495;28;20207;-71
2023/02/28 01:32:53;;;;;;;0.20;0.20;;;;;;;;;;5056673;28;20282;-71
2023/02/28 01:35:19;;;;;;;0.20;0.20;;;;;;;;;;5034850;28;20203;-71
2023/02/28 01:37:46;;;;;;;0.20;0.20;;;;;;;;;;5057127;28;20270;-71
2023/02/28 01:40:13;;;;;;;0.20;0.20;;;;;;;;;;5034065;28;20277;-70
2023/02/28 01:42:40;;;;;;;0.20;0.20;;;;;;;;;;5058126;28;20195;-71
2023/02/28 01:45:19;;;;;;;0.20;0.20;;;;;;;;;;5043302;28;20280;-69
2023/02/28 01:47:46;;;;;;;0.20;0.20;;;;;;;;;;5043033;28;20267;-70
2023/02/28 01:50:15;;;;;;;0.20;0.20;;;;;;;;;;5033870;28;20235;-70
2023/02/28 01:52:42;;;;;;;0.20;0.20;;;;;;;;;;5057933;28;20446;-71
2023/02/28 01:55:10;;;;;;;0.20;0.20;;;;;;;;;;5033457;28;20433;-70
2023/02/28 01:57:39;;;;;;;0.20;0.20;;;;;;;;;;5059503;28;20491;-70
2023/02/28 02:00:09;;;;;;;0.20;0.20;;;;;;;;;;5047182;28;20205;-71
2023/02/28 02:02:36;;;;;;;0.20;0.20;;;;;;;;;;5035559;28;20311;-71
2023/02/28 02:05:07;;;;;;;0.20;0.20;;;;;;;;;;5047100;28;20281;-71
2023/02/28 02:07:36;;;;;;;0.70;0.70;;;;;;;;;;5035571;28;20237;-71
2023/02/28 02:10:05;;;;;;;0.30;0.30;;;;;;;;;;5047082;28;20571;-71
2023/02/28 02:12:36;;;;;;;0.20;0.20;;;;;;;;;;5035358;28;20234;-71
2023/02/28 02:15:08;;;;;;;0.20;0.20;;;;;;;;;;5047044;28;20234;-71
2023/02/28 02:17:37;;;;;;;0.20;0.20;;;;;;;;;;5035336;28;20241;-71
2023/02/28 02:20:22;;;;;;;0.20;0.20;;;;;;;;;;5046746;28;20207;-71
2023/02/28 02:23:03;;;;;;;0.23;0.23;;;;;;;;;;5046428;28;20277;-71
2023/02/28 02:25:32;;;;;;;0.20;0.20;;;;;;;;;;5039420;28;20241;-71
2023/02/28 02:28:05;;;;;;;0.20;0.20;;;;;;;;;;5058584;28;20197;-71
2023/02/28 02:30:44;;;;;;;0.20;0.20;;;;;;;;;;5039668;28;20249;-71
2023/02/28 02:33:15;;;;;;;0.20;0.20;;;;;;;;;;5056852;28;20282;-71
2023/02/28 02:35:46;;;;;;;0.30;0.30;;;;;;;;;;5040819;28;20245;-71
2023/02/28 02:38:16;;;;;;;0.20;0.20;;;;;;;;;;5056999;28;20204;-71
2023/02/28 02:40:47;;;;;;;0.20;0.20;;;;;;;;;;5040978;28;20300;-71
2023/02/28 02:43:16;;;;;;;0.97;0.97;;;;;;;;;;5056320;28;20194;-71
2023/02/28 02:45:45;;;;;;;0.20;0.20;;;;;;;;;;5040664;28;20246;-71
2023/02/28 02:48:15;;;;;;;0.20;0.20;;;;;;;;;;5056418;28;20206;-71
2023/02/28 02:50:44;;;;;;;0.20;0.20;;;;;;;;;;5040350;28;20242;-71
2023/02/28 02:53:11;;;;;;;0.20;0.20;;;;;;;;;;5056979;28;20284;-71
2023/02/28 02:55:40;;;;;;;0.30;0.30;;;;;;;;;;5039915;28;20241;-71
2023/02/28 02:58:09;;;;;;;0.30;0.30;;;;;;;;;;5057250;28;20374;-71
2023/02/28 03:00:38;;;;;;;0.30;0.30;;;;;;;;;;5039421;28;20241;-71
2023/02/28 03:03:05;;;;;;;0.23;0.23;;;;;;;;;;5057421;28;20247;-71
2023/02/28 03:05:34;;;;;;;0.30;0.30;;;;;;;;;;5038860;28;20263;-70
2023/02/28 03:08:05;;;;;;;0.20;0.20;;;;;;;;;;5057527;28;20266;-71
2023/02/28 03:10:35;;;;;;;0.20;0.20;;;;;;;;;;5037859;28;20312;-71
2023/02/28 03:13:10;;;;;;;0.20;0.20;;;;;;;;;;5057568;28;20266;-71
2023/02/28 03:15:40;;;;;;;0.20;0.20;;;;;;;;;;5039446;28;20303;-71
2023/02/28 03:18:09;;;;;;;0.23;0.23;;;;;;;;;;5056848;28;20512;-71
2023/02/28 03:20:39;;;;;;;0.20;0.20;;;;;;;;;;5039165;28;20356;-70
2023/02/28 03:23:12;;;;;;;0.20;0.20;;;;;;;;;;5056685;28;20277;-71
2023/02/28 03:25:41;;;;;;;0.20;0.20;;;;;;;;;;5039017;28;20244;-71
2023/02/28 03:28:10;;;;;;;0.30;0.30;;;;;;;;;;5056612;28;20269;-71
2023/02/28 03:30:40;;;;;;;0.20;0.20;;;;;;;;;;5039213;28;20687;-70
2023/02/28 03:33:09;;;;;;;0.20;0.20;;;;;;;;;;5056424;28;20417;-71
2023/02/28 03:35:37;;;;;;;0.20;0.20;;;;;;;;;;5038518;28;20250;-71
2023/02/28 03:38:06;;;;;;;0.20;0.20;;;;;;;;;;5056982;28;20277;-71
2023/02/28 03:40:35;;;;;;;0.20;0.20;;;;;;;;;;5038488;28;20272;-71
2023/02/28 03:43:04;;;;;;;0.20;0.20;;;;;;;;;;5057110;28;20393;-72
2023/02/28 03:45:31;;;;;;;0.20;0.20;;;;;;;;;;5037999;28;20464;-71
2023/02/28 03:47:59;;;;;;;0.20;0.20;;;;;;;;;;5057441;28;20566;-71
2023/02/28 03:50:28;;;;;;;0.20;0.20;;;;;;;;;;5036996;28;20284;-71
2023/02/28 03:53:00;;;;;;;0.20;0.20;;;;;;;;;;5057608;28;20200;-71
2023/02/28 03:55:31;;;;;;;0.20;0.20;;;;;;;;;;5037495;28;20529;-71
2023/02/28 03:58:01;;;;;;;0.20;0.20;;;;;;;;;;5057059;28;20295;-71
2023/02/28 04:00:29;;;;;;;0.20;0.20;;;;;;;;;;5037461;28;20471;-71
2023/02/28 04:02:56;;;;;;;0.20;0.20;;;;;;;;;;5057169;28;20235;-71
2023/02/28 04:05:23;;;;;;;0.20;0.20;;;;;;;;;;5036502;28;20557;-72
2023/02/28 04:07:49;;;;;;;0.20;0.20;;;;;;;;;;5058192;28;20570;-71
2023/02/28 04:10:16;;;;;;;0.20;0.20;;;;;;;;;;5035662;28;20443;-71
2023/02/28 04:12:43;;;;;;;0.20;0.20;;;;;;;;;;5058645;28;20195;-71
2023/02/28 04:15:11;;;;;;;0.20;0.20;;;;;;;;;;5034940;28;20515;-70
2023/02/28 04:17:37;;;;;;;0.20;0.20;;;;;;;;;;5059514;28;20635;-71
2023/02/28 04:20:05;;;;;;;0.20;0.20;;;;;;;;;;5044177;28;20241;-71
2023/02/28 04:22:35;;;;;;;0.20;0.20;;;;;;;;;;5033058;28;20588;-71
2023/02/28 04:25:01;;;;;;;0.20;0.20;;;;;;;;;;5044495;28;20421;-71
2023/02/28 04:27:28;;;;;;;0.20;0.20;;;;;;;;;;5049573;28;20493;-71
2023/02/28 04:29:54;;;;;;;1.37;1.37;;;;;;;;;;5044402;28;20207;-71
2023/02/28 04:32:22;;;;;;;0.20;0.20;;;;;;;;;;5049387;28;20288;-71
2023/02/28 04:34:48;;;;;;;0.20;0.20;;;;;;;;;;5044161;28;20239;-71
2023/02/28 04:37:14;;;;;;;0.23;0.23;;;;;;;;;;5049406;28;20243;-71
2023/02/28 04:39:41;;;;;;;0.20;0.20;;;;;;;;;;5044280;28;20238;-71
2023/02/28 04:42:07;;;;;;;0.20;0.20;;;;;;;;;;5049193;28;20500;-71
2023/02/28 04:44:34;;;;;;;0.20;0.20;;;;;;;;;;5043974;28;20260;-71
2023/02/28 04:47:00;;;;;;;0.20;0.20;;;;;;;;;;5048237;28;20256;-71
2023/02/28 04:49:28;;;;;;;0.20;0.20;;;;;;;;;;5044631;28;20273;-71
2023/02/28 04:51:55;;;;;;;0.20;0.20;;;;;;;;;;5047377;28;20299;-71
2023/02/28 04:54:22;;;;;;;0.20;0.20;;;;;;;;;;5045447;28;20423;-71
2023/02/28 04:56:49;;;;;;;0.20;0.20;;;;;;;;;;5046440;28;20568;-71
2023/02/28 04:59:16;;;;;;;0.20;0.20;;;;;;;;;;5045987;28;20560;-71
2023/02/28 05:01:46;;;;;;;0.20;0.20;;;;;;;;;;5045665;28;20264;-71
2023/02/28 05:04:12;;;;;;;0.20;0.20;;;;;;;;;;5046211;28;20237;-71
2023/02/28 05:06:40;;;;;;;0.30;0.30;;;;;;;;;;5044923;28;20242;-71
2023/02/28 05:09:06;;;;;;;0.27;0.27;;;;;;;;;;5047296;28;20210;-71
2023/02/28 05:11:34;;;;;;;0.20;0.20;;;;;;;;;;5044366;28;20268;-71
2023/02/28 05:14:01;;;;;;;0.30;0.30;;;;;;;;;;5047783;28;20209;-71
2023/02/28 05:16:27;;;;;;;0.20;0.20;;;;;;;;;;5043791;28;20303;-71
2023/02/28 05:18:54;;;;;;;0.23;0.23;;;;;;;;;;5048633;28;20450;-71
2023/02/28 05:21:27;;;;;;;0.27;0.27;;;;;;;;;;5042995;28;20238;-71
2023/02/28 05:23:56;;;;;;;0.20;0.20;;;;;;;;;;5048514;28;20235;-71
2023/02/28 05:26:22;;;;;;;0.20;0.20;;;;;;;;;;5042964;28;20316;-71
2023/02/28 05:28:49;;;;;;;0.20;0.20;;;;;;;;;;5049190;28;20277;-71
2023/02/28 05:31:15;;;;;;;0.43;0.43;;;;;;;;;;5042144;28;20281;-71
2023/02/28 05:33:42;;;;;;;0.30;0.30;;;;;;;;;;5053001;28;20252;-71
2023/02/28 05:36:08;;;;;;;0.23;0.23;;;;;;;;;;5045150;28;20242;-71
2023/02/28 05:38:35;;;;;;;0.30;0.30;;;;;;;;;;5055113;28;20245;-71
2023/02/28 05:41:05;;;;;;;0.40;0.40;;;;;;;;;;5044263;28;20267;-71
2023/02/28 05:43:31;;;;;;;0.20;0.20;;;;;;;;;;5055494;28;20233;-71
2023/02/28 05:45:58;;;;;;;0.30;0.30;;;;;;;;;;5043627;28;20246;-71
2023/02/28 05:48:25;;;;;;;0.20;0.20;;;;;;;;;;5056206;28;20279;-71
2023/02/28 05:50:52;;;;;;;0.20;0.20;;;;;;;;;;5042781;28;20259;-71
2023/02/28 05:53:18;;;;;;;0.23;0.23;;;;;;;;;;5056606;28;20272;-71
2023/02/28 05:55:44;;;;;;;0.30;0.30;;;;;;;;;;5041708;28;20257;-71
2023/02/28 05:58:12;;;;;;;0.60;0.60;;;;;;;;;;5057617;28;20244;-71
2023/02/28 06:00:38;;;;;;;0.20;0.20;;;;;;;;;;5040634;28;20299;-71
2023/02/28 06:03:05;;;;;;;0.20;0.20;;;;;;;;;;5058566;28;20459;-70
2023/02/28 06:05:31;;;;;;;0.30;0.30;;;;;;;;;;5039666;28;20572;-71
2023/02/28 06:07:57;;;;;;;0.30;0.30;;;;;;;;;;5059168;28;20448;-71
2023/02/28 06:10:24;;;;;;;0.30;0.30;;;;;;;;;;5038630;28;20234;-71
2023/02/28 06:12:50;;;;;;;0.30;0.30;;;;;;;;;;5060153;28;20228;-71
2023/02/28 06:15:18;;;;;;;0.30;0.30;;;;;;;;;;5038079;28;20202;-71
2023/02/28 06:17:44;;;;;;;0.23;0.23;;;;;;;;;;5060893;28;20434;-71
2023/02/28 06:20:12;;;;;;;0.20;0.20;;;;;;;;;;5037029;28;20214;-71
2023/02/28 06:22:39;;;;;;;0.30;0.30;;;;;;;;;;5061511;28;20418;-71
2023/02/28 06:25:06;;;;;;;0.23;0.23;;;;;;;;;;5046591;28;20230;-71
2023/02/28 06:27:33;;;;;;;0.23;0.23;;;;;;;;;;5035107;28;20284;-71
2023/02/28 06:29:59;;;;;;;0.30;0.30;;;;;;;;;;5046461;28;20284;-71
2023/02/28 06:32:27;;;;;;;0.20;0.20;;;;;;;;;;5051497;28;20304;-70
2023/02/28 06:34:53;;;;;;;0.20;0.20;;;;;;;;;;5046542;28;20213;-71
2023/02/28 06:37:20;;;;;;;0.23;0.23;;;;;;;;;;5051573;28;20490;-71
2023/02/28 06:39:46;;;;;;;0.23;0.23;;;;;;;;;;5046400;28;20233;-71
2023/02/28 06:42:12;;;;;;;0.30;0.30;;;;;;;;;;5051451;28;20249;-71
2023/02/28 06:44:39;;;;;;;0.20;0.20;;;;;;;;;;5045979;28;20238;-71
2023/02/28 06:47:06;;;;;;;0.23;0.23;;;;;;;;;;5051109;28;20278;-70
2023/02/28 06:49:35;;;;;;;0.20;0.20;;;;;;;;;;5046358;28;20236;-70
2023/02/28 06:52:01;;;;;;;0.30;0.30;;;;;;;;;;5050377;28;20254;-71
2023/02/28 06:54:28;;;;;;;0.30;0.30;;;;;;;;;;5046494;28;20276;-72
2023/02/28 06:56:55;;;;;;;0.20;0.20;;;;;;;;;;5049455;28;20304;-73
2023/02/28 06:59:21;;;;;;;0.27;0.27;;;;;;;;;;5047608;28;20518;-70
2023/02/28 07:01:48;;;;;;;0.30;0.30;;;;;;;;;;5048593;28;20241;-72
2023/02/28 07:04:14;;;;;;;0.30;0.30;;;;;;;;;;5048419;28;20591;-72
2023/02/28 07:06:42;;;;;;;0.47;0.47;;;;;;;;;;5047568;28;20251;-71
2023/02/28 07:09:09;;;;;;;0.30;0.30;;;;;;;;;;5049049;28;20563;-71
2023/02/28 07:11:35;;;;;;;0.30;0.30;;;;;;;;;;5046922;28;20271;-71
2023/02/28 07:14:02;;;;;;;0.20;0.20;;;;;;;;;;5049475;28;20206;-71
2023/02/28 07:16:28;;;;;;;0.20;0.20;;;;;;;;;;5045739;28;20268;-71
2023/02/28 07:18:55;;;;;;;0.20;0.20;;;;;;;;;;5050776;28;20548;-71
2023/02/28 07:21:21;;;;;;;0.20;0.20;;;;;;;;;;5045147;28;20579;-72
2023/02/28 07:23:49;;;;;;;0.30;0.30;;;;;;;;;;5051194;28;20276;-71
2023/02/28 07:26:17;;;;;;;0.20;0.20;;;;;;;;;;5044327;28;20311;-73
2023/02/28 07:28:44;;;;;;;0.20;0.20;;;;;;;;;;5052098;28;20509;-75
2023/02/28 07:31:10;;;;;;;1.33;1.33;;;;;;;;;;5043440;28;20240;-72
2023/02/28 07:33:37;;;;;;;0.47;0.47;;;;;;;;;;5052569;28;20240;-76
2023/02/28 07:36:04;;;;;;;0.30;0.30;;;;;;;;;;5042137;28;20251;-74
2023/02/28 07:38:30;;;;;;;0.30;0.30;;;;;;;;;;5053313;28;20463;-75
2023/02/28 07:40:58;;;;;;;0.20;0.20;;;;;;;;;;5041608;28;20280;-72
2023/02/28 07:43:24;;;;;;;0.20;0.20;;;;;;;;;;5054367;28;20207;-71
2023/02/28 07:45:51;;;;;;;0.30;0.30;;;;;;;;;;5040670;28;20303;-72
2023/02/28 07:48:17;;;;;;;0.30;0.30;;;;;;;;;;5054811;28;20243;-71
2023/02/28 07:50:43;;;;;;;0.20;0.20;;;;;;;;;;5039347;28;20283;-71
2023/02/28 07:53:10;;;;;;;0.23;0.23;;;;;;;;;;5055647;28;20260;-71
2023/02/28 07:55:36;;;;;;;0.23;0.23;;;;;;;;;;5038094;28;20578;-71
2023/02/28 07:58:04;;;;;;;1.17;1.17;;;;;;;;;;5056774;28;20194;-71
2023/02/28 08:00:31;;;;;;;0.20;0.20;;;;;;;;;;5037142;28;20247;-71
2023/02/28 08:02:58;;;;;;;0.20;0.20;;;;;;;;;;5057464;28;20199;-71
2023/02/28 08:05:24;;;;;;;0.20;0.20;;;;;;;;;;5036916;28;20256;-71
2023/02/28 08:07:51;;;;;;;0.20;0.20;;;;;;;;;;5057799;28;20275;-70
2023/02/28 08:10:17;;;;;;;0.20;0.20;;;;;;;;;;5036037;28;20245;-71
2023/02/28 08:12:43;;;;;;;0.20;0.20;;;;;;;;;;5058895;28;20218;-73
2023/02/28 08:15:11;;;;;;;3.20;3.03;;;;;;;;;;5034919;28;20206;-71
2023/02/28 08:17:38;;;;;;;0.30;0.30;;;;;;;;;;5059651;28;20428;-71
2023/02/28 08:20:04;;;;;;;0.20;0.20;;;;;;;;;;5044670;28;20275;-70
2023/02/28 08:22:31;;;;;;;0.20;0.20;;;;;;;;;;5049838;28;20265;-71
2023/02/28 08:24:57;;;;;;;0.20;0.20;;;;;;;;;;5044356;28;20341;-72
2023/02/28 08:27:24;;;;;;;0.20;0.20;;;;;;;;;;5049523;28;20252;-73
2023/02/28 08:29:50;;;;;;;0.20;0.20;;;;;;;;;;5044336;28;20279;-71
2023/02/28 08:32:18;;;;;;;0.20;0.20;;;;;;;;;;5049391;28;20264;-71
2023/02/28 08:34:44;;;;;;;0.20;0.20;;;;;;;;;;5044087;28;20536;-70
2023/02/28 08:37:11;;;;;;;0.20;0.20;;;;;;;;;;5049447;28;20319;-71
2023/02/28 08:39:37;;;;;;;0.20;0.20;;;;;;;;;;5044191;28;20361;-70
2023/02/28 08:42:04;;;;;;;0.20;0.20;;;;;;;;;;5048931;28;20331;-71
2023/02/28 08:44:31;;;;;;;0.20;0.20;;;;;;;;;;5044320;28;20208;-71
2023/02/28 08:46:57;;;;;;;0.20;0.20;;;;;;;;;;5047821;28;20575;-71
2023/02/28 08:49:25;;;;;;;0.20;0.20;;;;;;;;;;5045219;28;20229;-71
2023/02/28 08:51:51;;;;;;;0.20;0.20;;;;;;;;;;5047009;28;20240;-71
2023/02/28 08:54:19;;;;;;;0.20;0.20;;;;;;;;;;5045803;28;20238;-71
2023/02/28 08:56:45;;;;;;;0.20;0.20;;;;;;;;;;5046289;28;20416;-72
2023/02/28 08:59:12;;;;;;;0.10;0.10;;;;;;;;;;5046417;28;20274;-72
2023/02/28 09:01:38;;;;;;;0.10;0.10;;;;;;;;;;5044593;28;20242;-72
2023/02/28 09:04:06;;;;;;;1.10;1.10;;;;;;;;;;5048202;28;20266;-71
2023/02/28 09:06:35;;;;;;;0.10;0.10;;;;;;;;;;5043864;28;20240;-71
2023/02/28 09:09:01;;;;;;;0.10;0.10;;;;;;;;;;5047524;28;20247;-71
2023/02/28 09:11:28;;;;;;;0.10;0.10;;;;;;;;;;5043635;28;20299;-71
2023/02/28 09:13:55;;;;;;;0.10;0.10;;;;;;;;;;5048774;28;20246;-71
2023/02/28 09:16:21;;;;;;;0.10;0.10;;;;;;;;;;5043177;28;20232;-71
2023/02/28 09:18:48;;;;;;;0.03;0.03;;;;;;;;;;5049478;28;20208;-72
2023/02/28 09:21:15;;;;;;;0.10;0.10;;;;;;;;;;5042246;28;20249;-71
2023/02/28 09:23:43;;;;;;;0.00;0.00;;;;;;;;;;5050408;28;20205;-72
2023/02/28 09:26:14;;;;;;;0.00;0.00;;;;;;;;;;5041200;28;20523;-72
2023/02/28 09:28:40;;;;;;;0.10;0.10;;;;;;;;;;5050490;28;20528;-71
2023/02/28 09:31:06;;;;;;;0.00;0.00;;;;;;;;;;5041096;28;20255;-71
2023/02/28 09:33:34;;;;;;;0.05;0.05;;;;;;;;;;5051100;28;20223;-71
2023/02/28 09:36:01;;;;;;;0.00;0.00;;;;;;;;;;5040206;28;20310;-71
2023/02/28 09:38:27;;;;;;;0.10;0.10;;;;;;;;;;5052134;28;20243;-71
2023/02/28 09:40:57;;;;;;;0.00;0.00;;;;;;;;;;5039485;28;20247;-71
2023/02/28 09:43:24;;;;;;;0.00;0.00;;;;;;;;;;5052629;28;20205;-70
2023/02/28 09:45:58;;;;;;;0.00;0.00;;;;;;;;;;5038947;28;20307;-70
2023/02/28 09:48:26;;;;;;;0.00;0.00;;;;;;;;;;5052308;28;20481;-70
2023/02/28 09:50:54;;;;;;;0.00;0.00;;;;;;;;;;5038829;28;20236;-70
2023/02/28 09:53:26;;;;;;;0.13;0.13;;;;;;;;;;5052439;28;20205;-70
2023/02/28 09:55:55;;;;;;;1.38;0.95;;;;;;;;;;5039220;28;20294;-70
2023/02/28 09:58:27;;;;;;;0.15;0.15;;;;;;;;;;5052255;28;20212;-70
2023/02/28 10:00:57;;;;;;;0.00;0.00;;;;;;;;;;5038940;28;20338;-70
2023/02/28 10:03:28;;;;;;;0.10;0.10;;;;;;;;;;5051998;28;20596;-70
2023/02/28 10:05:57;;;;;;;0.95;0.95;;;;;;;;;;5039196;28;20486;-71
2023/02/28 10:08:26;;;;;;;0.10;0.10;;;;;;;;;;5052154;28;20204;-70
2023/02/28 10:10:55;;;;;;;0.03;0.03;;;;;;;;;;5039029;28;20245;-70
2023/02/28 10:13:25;;;;;;;0.40;0.40;;;;;;;;;;5052439;28;20467;-70
2023/02/28 10:15:53;;;;;;;0.00;0.00;;;;;;;;;;5038625;28;20295;-72
2023/02/28 10:18:22;;;;;;;0.05;0.05;;;;;;;;;;5053267;28;20243;-73
2023/02/28 10:20:50;;;;;;;0.00;0.00;;;;;;;;;;5042036;28;20454;-71
2023/02/28 10:23:20;;;;;;;0.15;0.15;;;;;;;;;;5056764;28;20529;-72
2023/02/28 10:25:49;;;;;;;0.00;0.00;;;;;;;;;;5041679;28;20303;-73
2023/02/28 10:28:17;;;;;;;0.00;0.00;;;;;;;;;;5056665;28;20205;-76
2023/02/28 10:30:46;;;;;;;0.05;0.05;;;;;;;;;;5041151;28;20270;-72
2023/02/28 10:33:18;;;;;;;0.00;0.00;;;;;;;;;;5056631;28;20284;-72
2023/02/28 10:35:45;;;;;;;0.00;0.00;;;;;;;;;;5041312;28;20240;-72
2023/02/28 10:38:15;;;;;;;0.00;0.00;;;;;;;;;;5057147;28;20455;-72
2023/02/28 10:40:41;;;;;;;0.00;0.00;;;;;;;;;;5040799;28;20302;-72
2023/02/28 10:43:18;;;;;;;0.00;0.00;;;;;;;;;;5057003;28;20240;-72
2023/02/28 10:45:53;;;;;;;0.00;0.00;;;;;;;;;;5041162;28;20303;-72
2023/02/28 10:48:42;;;;;;;0.00;0.00;;;;;;;;;;5055917;28;20231;-71
2023/02/28 10:51:10;;;;;;;0.88;0.63;;;;;;;;;;5042060;28;20450;-72
2023/02/28 10:53:39;;;;;;;0.00;0.00;;;;;;;;;;5053473;28;20251;-75
2023/02/28 10:56:07;;;;;;;0.00;0.00;;;;;;;;;;5043564;28;20262;-77
2023/02/28 10:58:45;;;;;;;0.00;0.00;;;;;;;;;;5053816;28;20395;-74
2023/02/28 11:01:16;;;;;;;0.85;0.85;;;;;;;;;;5044312;28;20236;-74
2023/02/28 11:03:42;;;;;;;0.00;0.00;;;;;;;;;;5052720;28;20555;-74
2023/02/28 11:06:09;;;;;;;0.00;0.00;;;;;;;;;;5043327;28;20243;-74
2023/02/28 11:08:44;;;;;;;0.00;0.00;;;;;;;;;;5053490;28;20451;-74
2023/02/28 11:11:11;;;;;;;6.80;2.22;;;;;;;;;;5043923;28;20243;-73
2023/02/28 11:13:38;;;;;;;0.10;0.10;;;;;;;;;;5053159;28;20259;-75
2023/02/28 11:16:05;;;;;;;0.00;0.00;;;;;;;;;;5042991;28;20252;-74
2023/02/28 11:18:36;;;;;;;0.00;0.00;;;;;;;;;;5053507;28;20215;-75
2023/02/28 11:21:03;;;;;;;0.00;0.00;;;;;;;;;;5042506;28;20307;-76
2023/02/28 11:23:31;;;;;;;0.00;0.00;;;;;;;;;;5053663;28;20215;-77
2023/02/28 11:26:00;;;;;;;0.00;0.00;;;;;;;;;;5041959;28;20563;-76
2023/02/28 11:28:28;;;;;;;0.00;0.00;;;;;;;;;;5053947;28;20256;-77
2023/02/28 11:31:05;;;;;;;0.00;0.00;;;;;;;;;;5040360;28;20307;-75
2023/02/28 11:33:40;;;;;;;0.00;0.00;;;;;;;;;;5053440;28;20239;-75
2023/02/28 11:36:10;;;;;;;0.00;0.00;;;;;;;;;;5042965;28;20239;-74
2023/02/28 11:38:37;;;;;;;0.00;0.00;;;;;;;;;;5052797;28;20232;-75
2023/02/28 11:41:06;;;;;;;0.00;0.00;;;;;;;;;;5042633;28;20256;-74
2023/02/28 11:43:40;;;;;;;0.00;0.00;;;;;;;;;;5053156;28;20451;-75
2023/02/28 11:46:17;;;;;;;0.32;0.32;;;;;;;;;;5042787;28;20631;-75
2023/02/28 11:48:50;;;;;;;0.00;0.00;;;;;;;;;;5051681;28;20217;-69
2023/02/28 11:51:20;;;;;;;0.00;0.00;;;;;;;;;;5044125;28;20613;-69
2023/02/28 11:54:01;;;;;;;0.00;0.00;;;;;;;;;;5051199;28;20200;-69
2023/02/28 11:56:30;;;;;;;0.00;0.00;;;;;;;;;;5043949;28;20316;-69
2023/02/28 11:59:03;;;;;;;0.00;0.00;;;;;;;;;;5049371;28;20272;-69
2023/02/28 12:01:36;;;;;;;0.00;0.00;;;;;;;;;;5044597;28;20286;-69
2023/02/28 12:04:13;;;;;;;0.00;0.00;;;;;;;;;;5049278;28;20225;-68
2023/02/28 12:06:41;;;;;;;0.00;0.00;;;;;;;;;;5046185;28;20290;-68
2023/02/28 12:09:18;;;;;;;0.00;0.00;;;;;;;;;;5047743;28;20272;-68
2023/02/28 12:11:49;;;;;;;0.00;0.00;;;;;;;;;;5047004;28;20310;-68
2023/02/28 12:14:23;;;;;;;0.00;0.00;;;;;;;;;;5046748;28;20279;-68
2023/02/28 12:16:57;;;;;;;0.00;0.00;;;;;;;;;;5047316;28;20254;-68
2023/02/28 12:19:27;;;;;;;0.00;0.00;;;;;;;;;;5045964;28;20390;-66
2023/02/28 12:22:00;;;;;;;0.00;0.00;;;;;;;;;;5047903;28;20240;-66
2023/02/28 12:24:35;;;;;;;0.00;0.00;;;;;;;;;;5045464;28;20275;-67
2023/02/28 12:27:03;;;;;;;0.00;0.00;;;;;;;;;;5048716;28;20509;-68
2023/02/28 12:29:30;;;;;;;0.00;0.00;;;;;;;;;;5044704;28;20276;-67
2023/02/28 12:31:59;;;;;;;0.00;0.00;;;;;;;;;;5048017;28;20240;-67
2023/02/28 12:34:29;;;;;;;0.00;0.00;;;;;;;;;;5045055;28;20205;-68
2023/02/28 12:36:56;;;;;;;0.00;0.00;;;;;;;;;;5047821;28;20236;-67
2023/02/28 12:39:25;;;;;;;0.00;0.00;;;;;;;;;;5045482;28;20231;-67
2023/02/28 12:41:53;;;;;;;0.00;0.00;;;;;;;;;;5047066;28;20463;-67
2023/02/28 12:44:22;;;;;;;0.45;0.45;;;;;;;;;;5045739;28;20242;-66
2023/02/28 12:46:51;;;;;;;0.00;0.00;;;;;;;;;;5046771;28;20308;-65
2023/02/28 12:49:19;;;;;;;2.53;2.42;;;;;;;;;;5046098;28;20279;-57
2023/02/28 12:51:47;;;;;;;0.00;0.00;;;;;;;;;;5046354;28;20334;-60
2023/02/28 12:54:17;;;;;;;0.00;0.00;;;;;;;;;;5046620;28;20208;-61
2023/02/28 12:56:47;;;;;;;0.00;0.00;;;;;;;;;;5045950;28;20239;-60
2023/02/28 12:59:18;;;;;;;0.00;0.00;;;;;;;;;;5046107;28;20208;-62
2023/02/28 13:01:52;;;;;;;0.00;0.00;;;;;;;;;;5045625;28;20250;-63
2023/02/28 13:04:42;;;;;;;0.00;0.00;;;;;;;;;;5046228;28;20224;-66
2023/02/28 13:07:23;;;;;;;0.00;0.00;;;;;;;;;;5048932;28;20447;-66
2023/02/28 13:09:54;;;;;;;0.00;0.00;;;;;;;;;;5043902;28;20547;-66
2023/02/28 13:12:22;;;;;;;0.00;0.00;;;;;;;;;;5048955;28;20307;-66
2023/02/28 13:14:49;;;;;;;0.00;0.00;;;;;;;;;;5043691;28;20227;-65
2023/02/28 13:17:20;;;;;;;0.00;0.00;;;;;;;;;;5048822;28;20266;-68
2023/02/28 13:19:48;;;;;;;0.00;0.00;;;;;;;;;;5043617;28;20212;-68
2023/02/28 13:22:20;;;;;;;0.00;0.00;;;;;;;;;;5048875;28;20629;-68
2023/02/28 13:24:48;;;;;;;0.00;0.00;;;;;;;;;;5043703;28;20453;-68
2023/02/28 13:27:34;;;;;;;0.00;0.00;;;;;;;;;;5048677;28;20307;-68
2023/02/28 13:30:02;;;;;;;0.00;0.00;;;;;;;;;;5043548;28;20242;-68
2023/02/28 13:32:38;;;;;;;0.10;0.10;;;;;;;;;;5048678;28;20243;-67
2023/02/28 13:35:15;;;;;;;0.00;0.00;;;;;;;;;;5043689;28;20426;-67
2023/02/28 13:37:49;;;;;;;0.00;0.00;;;;;;;;;;5041371;28;20265;-68
2023/02/28 13:40:30;;;;;;;0.00;0.00;;;;;;;;;;5034510;28;20214;-69
2023/02/28 13:42:56;;;;;;;0.00;0.00;;;;;;;;;;5055717;28;20200;-66
2023/02/28 13:45:24;;;;;;;0.00;0.00;;;;;;;;;;5035406;28;20508;-66
2023/02/28 13:48:00;;;;;;;0.10;0.10;;;;;;;;;;5056544;28;20276;-66
2023/02/28 13:50:31;;;;;;;0.10;0.10;;;;;;;;;;5035769;28;20275;-66
2023/02/28 13:53:09;;;;;;;0.10;0.10;;;;;;;;;;5055946;28;20449;-67
2023/02/28 13:55:39;;;;;;;0.00;0.00;;;;;;;;;;5040413;28;20306;-66
2023/02/28 13:58:12;;;;;;;0.00;0.00;;;;;;;;;;5058669;28;20441;-70
2023/02/28 14:00:46;;;;;;;0.10;0.10;;;;;;;;;;5040891;28;20237;-66
2023/02/28 14:03:18;;;;;;;0.05;0.05;;;;;;;;;;5057590;28;20268;-67
2023/02/28 14:05:44;;;;;;;0.10;0.10;;;;;;;;;;5041454;28;20575;-66
2023/02/28 14:08:17;;;;;;;0.10;0.10;;;;;;;;;;5057226;28;20294;-66
2023/02/28 14:10:45;;;;;;;0.10;0.10;;;;;;;;;;5041536;28;20243;-67
2023/02/28 14:13:13;;;;;;;0.10;0.10;;;;;;;;;;5057186;28;20279;-67
2023/02/28 14:15:47;;;;;;;0.10;0.10;;;;;;;;;;5041100;28;20263;-67
2023/02/28 14:18:25;;;;;;;0.10;0.10;;;;;;;;;;5056767;28;20210;-67
2023/02/28 14:20:53;;;;;;;0.10;0.10;;;;;;;;;;5042410;28;20243;-69
2023/02/28 14:23:27;;;;;;;0.10;0.10;;;;;;;;;;5056088;28;20212;-68
2023/02/28 14:25:58;;;;;;;0.00;0.00;;;;;;;;;;5042646;28;20240;-68
2023/02/28 14:28:29;;;;;;;1.17;1.17;;;;;;;;;;5055634;28;20633;-68
2023/02/28 14:31:01;;;;;;;0.10;0.10;;;;;;;;;;5042884;28;20251;-68
2023/02/28 14:33:33;;;;;;;0.10;0.10;;;;;;;;;;5054757;28;20215;-67
2023/02/28 14:36:05;;;;;;;1.17;1.17;;;;;;;;;;5043242;28;20302;-65
2023/02/28 14:38:34;;;;;;;0.10;0.10;;;;;;;;;;5054323;28;20259;-73
2023/02/28 14:41:04;;;;;;;0.10;0.10;;;;;;;;;;5043253;28;20242;-64
2023/02/28 14:43:30;;;;;;;0.10;0.10;;;;;;;;;;5054370;28;20211;-63
2023/02/28 14:45:58;;;;;;;0.10;0.10;;;;;;;;;;5042650;28;20268;-63
2023/02/28 14:48:25;;;;;;;0.10;0.10;;;;;;;;;;5054929;28;20234;-63
2023/02/28 14:50:53;;;;;;;0.10;0.10;;;;;;;;;;5041953;28;20309;-63
2023/02/28 14:53:21;;;;;;;0.10;0.10;;;;;;;;;;5055505;28;20275;-64